sensor_id;sensor_type;location;lat;lon;timestamp;P1;durP1;ratioP1;P2;durP2;ratioP2
71104;SDS011;58760;48.716;8.962;2024-03-08T00:01:06;28.10;;;16.33;;
71104;SDS011;58760;48.716;8.962;2024-03-08T00:03:32;30.65;;;16.10;;
71104;SDS011;58760;48.716;8.962;2024-03-08T00:05:58;31.73;;;16.90;;
71104;SDS011;58760;48.716;8.962;2024-03-08T00:08:24;34.28;;;16.55;;
71104;SDS011;58760;48.716;8.962;2024-03-08T00:10:50;30.02;;;14.60;;
71104;SDS011;58760;48.716;8.962;2024-03-08T00:13:15;28.17;;;15.30;;
71104;SDS011;58760;48.716;8.962;2024-03-08T00:15:41;29.17;;;15.15;;
71104;SDS011;58760;48.716;8.962;2024-03-08T00:18:07;27.25;;;14.98;;
71104;SDS011;58760;48.716;8.962;2024-03-08T00:20:32;26.95;;;14.95;;
71104;SDS011;58760;48.716;8.962;2024-03-08T00:22:58;28.50;;;15.07;;
71104;SDS011;58760;48.716;8.962;2024-03-08T00:25:24;32.65;;;15.23;;
71104;SDS011;58760;48.716;8.962;2024-03-08T00:27:49;28.20;;;15.65;;
71104;SDS011;58760;48.716;8.962;2024-03-08T00:30:15;28.52;;;14.98;;
71104;SDS011;58760;48.716;8.962;2024-03-08T00:32:43;30.10;;;15.10;;
71104;SDS011;58760;48.716;8.962;2024-03-08T00:35:10;31.80;;;15.98;;
71104;SDS011;58760;48.716;8.962;2024-03-08T00:37:37;31.15;;;16.02;;
71104;SDS011;58760;48.716;8.962;2024-03-08T00:40:03;26.77;;;15.55;;
71104;SDS011;58760;48.716;8.962;2024-03-08T00:42:29;26.95;;;15.18;;
71104;SDS011;58760;48.716;8.962;2024-03-08T00:44:55;26.15;;;14.57;;
71104;SDS011;58760;48.716;8.962;2024-03-08T00:47:20;26.85;;;14.35;;
71104;SDS011;58760;48.716;8.962;2024-03-08T00:49:46;30.30;;;15.60;;
71104;SDS011;58760;48.716;8.962;2024-03-08T00:52:11;29.35;;;15.23;;
71104;SDS011;58760;48.716;8.962;2024-03-08T00:54:37;28.88;;;14.38;;
71104;SDS011;58760;48.716;8.962;2024-03-08T00:57:03;28.50;;;14.57;;
71104;SDS011;58760;48.716;8.962;2024-03-08T01:01:58;26.55;;;13.65;;
71104;SDS011;58760;48.716;8.962;2024-03-08T01:04:25;26.80;;;14.00;;
71104;SDS011;58760;48.716;8.962;2024-03-08T01:06:54;27.48;;;14.35;;
71104;SDS011;58760;48.716;8.962;2024-03-08T01:09:27;27.88;;;14.88;;
71104;SDS011;58760;48.716;8.962;2024-03-08T01:11:54;28.15;;;14.13;;
71104;SDS011;58760;48.716;8.962;2024-03-08T01:14:20;27.88;;;14.85;;
71104;SDS011;58760;48.716;8.962;2024-03-08T01:16:50;26.92;;;14.65;;
71104;SDS011;58760;48.716;8.962;2024-03-08T01:19:16;28.17;;;14.70;;
71104;SDS011;58760;48.716;8.962;2024-03-08T01:21:42;26.23;;;13.90;;
71104;SDS011;58760;48.716;8.962;2024-03-08T01:24:08;29.08;;;14.25;;
71104;SDS011;58760;48.716;8.962;2024-03-08T01:26:34;30.27;;;14.85;;
71104;SDS011;58760;48.716;8.962;2024-03-08T01:29:00;27.25;;;14.23;;
71104;SDS011;58760;48.716;8.962;2024-03-08T01:31:29;25.23;;;14.20;;
71104;SDS011;58760;48.716;8.962;2024-03-08T01:33:57;28.52;;;14.18;;
71104;SDS011;58760;48.716;8.962;2024-03-08T01:36:23;28.73;;;14.43;;
71104;SDS011;58760;48.716;8.962;2024-03-08T01:38:52;25.00;;;13.77;;
71104;SDS011;58760;48.716;8.962;2024-03-08T01:41:18;30.00;;;15.10;;
71104;SDS011;58760;48.716;8.962;2024-03-08T01:43:45;25.90;;;14.00;;
71104;SDS011;58760;48.716;8.962;2024-03-08T01:46:11;26.00;;;14.48;;
71104;SDS011;58760;48.716;8.962;2024-03-08T01:48:41;26.98;;;13.77;;
71104;SDS011;58760;48.716;8.962;2024-03-08T01:51:08;27.83;;;14.38;;
71104;SDS011;58760;48.716;8.962;2024-03-08T01:53:34;27.25;;;14.60;;
71104;SDS011;58760;48.716;8.962;2024-03-08T01:56:00;30.05;;;15.18;;
71104;SDS011;58760;48.716;8.962;2024-03-08T01:58:28;25.77;;;14.07;;
71104;SDS011;58760;48.716;8.962;2024-03-08T02:00:55;28.30;;;14.88;;
71104;SDS011;58760;48.716;8.962;2024-03-08T02:03:21;29.85;;;15.25;;
71104;SDS011;58760;48.716;8.962;2024-03-08T02:05:47;26.55;;;14.73;;
71104;SDS011;58760;48.716;8.962;2024-03-08T02:08:14;27.80;;;14.80;;
71104;SDS011;58760;48.716;8.962;2024-03-08T02:10:40;24.92;;;14.18;;
71104;SDS011;58760;48.716;8.962;2024-03-08T02:13:09;30.00;;;15.20;;
71104;SDS011;58760;48.716;8.962;2024-03-08T02:15:54;29.50;;;14.27;;
71104;SDS011;58760;48.716;8.962;2024-03-08T02:18:22;31.42;;;16.05;;
71104;SDS011;58760;48.716;8.962;2024-03-08T02:20:51;28.08;;;14.43;;
71104;SDS011;58760;48.716;8.962;2024-03-08T02:23:17;30.00;;;15.75;;
71104;SDS011;58760;48.716;8.962;2024-03-08T02:25:45;28.50;;;14.52;;
71104;SDS011;58760;48.716;8.962;2024-03-08T02:28:11;27.85;;;15.23;;
71104;SDS011;58760;48.716;8.962;2024-03-08T02:30:37;29.50;;;15.15;;
71104;SDS011;58760;48.716;8.962;2024-03-08T02:33:04;27.30;;;14.05;;
71104;SDS011;58760;48.716;8.962;2024-03-08T02:35:34;27.17;;;13.43;;
71104;SDS011;58760;48.716;8.962;2024-03-08T02:38:00;26.15;;;14.20;;
71104;SDS011;58760;48.716;8.962;2024-03-08T02:40:26;28.05;;;14.35;;
71104;SDS011;58760;48.716;8.962;2024-03-08T02:42:52;27.25;;;13.80;;
71104;SDS011;58760;48.716;8.962;2024-03-08T02:45:18;25.25;;;13.70;;
71104;SDS011;58760;48.716;8.962;2024-03-08T02:47:43;28.55;;;14.75;;
71104;SDS011;58760;48.716;8.962;2024-03-08T02:50:09;24.95;;;13.32;;
71104;SDS011;58760;48.716;8.962;2024-03-08T02:52:34;28.55;;;13.35;;
71104;SDS011;58760;48.716;8.962;2024-03-08T02:55:03;28.83;;;13.90;;
71104;SDS011;58760;48.716;8.962;2024-03-08T02:57:31;26.42;;;13.95;;
71104;SDS011;58760;48.716;8.962;2024-03-08T02:59:57;29.15;;;14.70;;
71104;SDS011;58760;48.716;8.962;2024-03-08T03:02:24;26.58;;;13.35;;
71104;SDS011;58760;48.716;8.962;2024-03-08T03:04:51;26.08;;;14.15;;
71104;SDS011;58760;48.716;8.962;2024-03-08T03:07:17;25.92;;;13.48;;
71104;SDS011;58760;48.716;8.962;2024-03-08T03:09:43;26.50;;;13.52;;
71104;SDS011;58760;48.716;8.962;2024-03-08T03:12:11;24.83;;;12.38;;
71104;SDS011;58760;48.716;8.962;2024-03-08T03:14:40;23.35;;;12.65;;
71104;SDS011;58760;48.716;8.962;2024-03-08T03:17:05;25.40;;;13.18;;
71104;SDS011;58760;48.716;8.962;2024-03-08T03:19:31;25.50;;;12.18;;
71104;SDS011;58760;48.716;8.962;2024-03-08T03:21:57;26.05;;;13.18;;
71104;SDS011;58760;48.716;8.962;2024-03-08T03:24:22;27.65;;;13.80;;
71104;SDS011;58760;48.716;8.962;2024-03-08T03:26:48;26.40;;;13.70;;
71104;SDS011;58760;48.716;8.962;2024-03-08T03:29:15;25.98;;;12.88;;
71104;SDS011;58760;48.716;8.962;2024-03-08T03:31:42;25.30;;;13.23;;
71104;SDS011;58760;48.716;8.962;2024-03-08T03:34:12;22.30;;;11.82;;
71104;SDS011;58760;48.716;8.962;2024-03-08T03:36:38;24.15;;;12.55;;
71104;SDS011;58760;48.716;8.962;2024-03-08T03:39:07;21.17;;;11.90;;
71104;SDS011;58760;48.716;8.962;2024-03-08T03:41:38;22.52;;;12.15;;
71104;SDS011;58760;48.716;8.962;2024-03-08T03:44:07;24.75;;;12.50;;
71104;SDS011;58760;48.716;8.962;2024-03-08T03:46:34;24.65;;;13.32;;
71104;SDS011;58760;48.716;8.962;2024-03-08T03:49:00;23.17;;;12.45;;
71104;SDS011;58760;48.716;8.962;2024-03-08T03:51:26;25.15;;;13.13;;
71104;SDS011;58760;48.716;8.962;2024-03-08T03:53:52;26.83;;;13.35;;
71104;SDS011;58760;48.716;8.962;2024-03-08T03:56:18;31.83;;;13.70;;
71104;SDS011;58760;48.716;8.962;2024-03-08T03:58:44;26.38;;;13.52;;
71104;SDS011;58760;48.716;8.962;2024-03-08T04:01:10;24.27;;;12.75;;
71104;SDS011;58760;48.716;8.962;2024-03-08T04:03:35;25.95;;;13.05;;
71104;SDS011;58760;48.716;8.962;2024-03-08T04:06:02;26.40;;;13.60;;
71104;SDS011;58760;48.716;8.962;2024-03-08T04:08:30;23.00;;;12.15;;
71104;SDS011;58760;48.716;8.962;2024-03-08T04:10:59;29.05;;;14.25;;
71104;SDS011;58760;48.716;8.962;2024-03-08T04:13:25;28.00;;;14.07;;
71104;SDS011;58760;48.716;8.962;2024-03-08T04:15:51;24.30;;;13.75;;
71104;SDS011;58760;48.716;8.962;2024-03-08T04:18:17;25.35;;;12.93;;
71104;SDS011;58760;48.716;8.962;2024-03-08T04:20:43;26.83;;;14.30;;
71104;SDS011;58760;48.716;8.962;2024-03-08T04:23:08;26.38;;;13.55;;
71104;SDS011;58760;48.716;8.962;2024-03-08T04:25:34;26.08;;;13.30;;
71104;SDS011;58760;48.716;8.962;2024-03-08T04:27:59;26.55;;;13.95;;
71104;SDS011;58760;48.716;8.962;2024-03-08T04:30:25;27.23;;;14.95;;
71104;SDS011;58760;48.716;8.962;2024-03-08T04:32:53;28.42;;;14.65;;
71104;SDS011;58760;48.716;8.962;2024-03-08T04:35:19;28.70;;;14.27;;
71104;SDS011;58760;48.716;8.962;2024-03-08T04:37:45;27.85;;;13.90;;
71104;SDS011;58760;48.716;8.962;2024-03-08T04:40:11;25.15;;;13.13;;
71104;SDS011;58760;48.716;8.962;2024-03-08T04:42:37;30.13;;;14.43;;
71104;SDS011;58760;48.716;8.962;2024-03-08T04:45:06;29.13;;;15.07;;
71104;SDS011;58760;48.716;8.962;2024-03-08T04:47:33;29.33;;;14.73;;
71104;SDS011;58760;48.716;8.962;2024-03-08T04:50:04;28.58;;;15.32;;
71104;SDS011;58760;48.716;8.962;2024-03-08T04:52:30;30.50;;;15.18;;
71104;SDS011;58760;48.716;8.962;2024-03-08T04:54:56;27.35;;;15.02;;
71104;SDS011;58760;48.716;8.962;2024-03-08T04:57:24;31.67;;;15.13;;
71104;SDS011;58760;48.716;8.962;2024-03-08T04:59:52;29.25;;;15.35;;
71104;SDS011;58760;48.716;8.962;2024-03-08T05:02:18;28.75;;;14.52;;
71104;SDS011;58760;48.716;8.962;2024-03-08T05:04:43;27.60;;;14.13;;
71104;SDS011;58760;48.716;8.962;2024-03-08T05:07:11;29.75;;;14.63;;
71104;SDS011;58760;48.716;8.962;2024-03-08T05:09:37;27.23;;;14.93;;
71104;SDS011;58760;48.716;8.962;2024-03-08T05:12:02;28.35;;;14.65;;
71104;SDS011;58760;48.716;8.962;2024-03-08T05:14:28;25.65;;;13.77;;
71104;SDS011;58760;48.716;8.962;2024-03-08T05:16:54;25.48;;;12.60;;
71104;SDS011;58760;48.716;8.962;2024-03-08T05:19:20;31.25;;;14.95;;
71104;SDS011;58760;48.716;8.962;2024-03-08T05:21:46;29.52;;;15.80;;
71104;SDS011;58760;48.716;8.962;2024-03-08T05:24:13;30.95;;;15.80;;
71104;SDS011;58760;48.716;8.962;2024-03-08T05:29:07;29.05;;;14.32;;
71104;SDS011;58760;48.716;8.962;2024-03-08T05:31:45;23.60;;;13.10;;
71104;SDS011;58760;48.716;8.962;2024-03-08T05:34:11;27.38;;;14.30;;
71104;SDS011;58760;48.716;8.962;2024-03-08T05:36:39;27.45;;;14.80;;
71104;SDS011;58760;48.716;8.962;2024-03-08T05:39:06;28.52;;;14.38;;
71104;SDS011;58760;48.716;8.962;2024-03-08T05:41:33;26.33;;;14.35;;
71104;SDS011;58760;48.716;8.962;2024-03-08T05:44:02;25.88;;;13.93;;
71104;SDS011;58760;48.716;8.962;2024-03-08T05:46:28;28.23;;;13.23;;
71104;SDS011;58760;48.716;8.962;2024-03-08T05:48:53;27.60;;;14.55;;
71104;SDS011;58760;48.716;8.962;2024-03-08T05:51:28;27.58;;;14.05;;
71104;SDS011;58760;48.716;8.962;2024-03-08T05:56:21;24.05;;;12.15;;
71104;SDS011;58760;48.716;8.962;2024-03-08T05:58:50;27.75;;;12.98;;
71104;SDS011;58760;48.716;8.962;2024-03-08T06:01:15;29.70;;;15.50;;
71104;SDS011;58760;48.716;8.962;2024-03-08T06:03:41;26.85;;;15.38;;
71104;SDS011;58760;48.716;8.962;2024-03-08T06:06:13;32.50;;;16.35;;
71104;SDS011;58760;48.716;8.962;2024-03-08T06:08:39;28.10;;;14.98;;
71104;SDS011;58760;48.716;8.962;2024-03-08T06:11:05;29.40;;;15.90;;
71104;SDS011;58760;48.716;8.962;2024-03-08T06:13:31;27.88;;;15.07;;
71104;SDS011;58760;48.716;8.962;2024-03-08T06:15:59;29.35;;;16.13;;
71104;SDS011;58760;48.716;8.962;2024-03-08T06:18:25;29.65;;;14.57;;
71104;SDS011;58760;48.716;8.962;2024-03-08T06:20:51;31.95;;;14.77;;
71104;SDS011;58760;48.716;8.962;2024-03-08T06:23:17;30.27;;;15.50;;
71104;SDS011;58760;48.716;8.962;2024-03-08T06:25:43;28.73;;;15.75;;
71104;SDS011;58760;48.716;8.962;2024-03-08T06:28:09;31.58;;;15.70;;
71104;SDS011;58760;48.716;8.962;2024-03-08T06:30:35;29.48;;;15.38;;
71104;SDS011;58760;48.716;8.962;2024-03-08T06:33:01;27.98;;;14.52;;
71104;SDS011;58760;48.716;8.962;2024-03-08T06:35:27;30.00;;;13.98;;
71104;SDS011;58760;48.716;8.962;2024-03-08T06:37:52;27.05;;;13.75;;
71104;SDS011;58760;48.716;8.962;2024-03-08T06:40:17;25.27;;;12.98;;
71104;SDS011;58760;48.716;8.962;2024-03-08T06:42:43;28.50;;;14.70;;
71104;SDS011;58760;48.716;8.962;2024-03-08T06:45:08;31.20;;;14.55;;
71104;SDS011;58760;48.716;8.962;2024-03-08T06:47:35;27.75;;;14.20;;
71104;SDS011;58760;48.716;8.962;2024-03-08T06:50:02;26.83;;;14.57;;
71104;SDS011;58760;48.716;8.962;2024-03-08T06:52:28;26.00;;;13.98;;
71104;SDS011;58760;48.716;8.962;2024-03-08T06:54:54;25.08;;;14.05;;
71104;SDS011;58760;48.716;8.962;2024-03-08T06:57:19;25.08;;;13.40;;
71104;SDS011;58760;48.716;8.962;2024-03-08T06:59:48;29.45;;;14.90;;
71104;SDS011;58760;48.716;8.962;2024-03-08T07:02:14;26.83;;;15.07;;
71104;SDS011;58760;48.716;8.962;2024-03-08T07:04:40;29.00;;;14.93;;
71104;SDS011;58760;48.716;8.962;2024-03-08T07:07:06;30.65;;;15.65;;
71104;SDS011;58760;48.716;8.962;2024-03-08T07:09:37;28.77;;;14.77;;
71104;SDS011;58760;48.716;8.962;2024-03-08T07:12:03;27.30;;;14.38;;
71104;SDS011;58760;48.716;8.962;2024-03-08T07:14:29;28.45;;;14.68;;
71104;SDS011;58760;48.716;8.962;2024-03-08T07:16:56;27.55;;;15.32;;
71104;SDS011;58760;48.716;8.962;2024-03-08T07:19:21;29.05;;;15.40;;
71104;SDS011;58760;48.716;8.962;2024-03-08T07:21:47;28.52;;;15.10;;
71104;SDS011;58760;48.716;8.962;2024-03-08T07:24:13;28.70;;;14.73;;
71104;SDS011;58760;48.716;8.962;2024-03-08T07:26:39;27.13;;;15.00;;
71104;SDS011;58760;48.716;8.962;2024-03-08T07:29:05;26.30;;;14.50;;
71104;SDS011;58760;48.716;8.962;2024-03-08T07:31:31;26.92;;;15.25;;
71104;SDS011;58760;48.716;8.962;2024-03-08T07:34:19;26.92;;;14.70;;
71104;SDS011;58760;48.716;8.962;2024-03-08T07:36:46;27.83;;;14.57;;
71104;SDS011;58760;48.716;8.962;2024-03-08T07:39:11;30.23;;;15.35;;
71104;SDS011;58760;48.716;8.962;2024-03-08T07:41:37;24.73;;;13.13;;
71104;SDS011;58760;48.716;8.962;2024-03-08T07:44:06;26.17;;;14.63;;
71104;SDS011;58760;48.716;8.962;2024-03-08T07:46:32;27.23;;;14.57;;
71104;SDS011;58760;48.716;8.962;2024-03-08T07:48:59;25.42;;;13.70;;
71104;SDS011;58760;48.716;8.962;2024-03-08T07:51:25;25.85;;;13.70;;
71104;SDS011;58760;48.716;8.962;2024-03-08T07:53:50;24.25;;;13.82;;
71104;SDS011;58760;48.716;8.962;2024-03-08T07:56:16;26.30;;;14.02;;
71104;SDS011;58760;48.716;8.962;2024-03-08T07:58:43;25.00;;;13.13;;
71104;SDS011;58760;48.716;8.962;2024-03-08T08:01:16;26.85;;;13.88;;
71104;SDS011;58760;48.716;8.962;2024-03-08T08:03:45;25.10;;;13.15;;
71104;SDS011;58760;48.716;8.962;2024-03-08T08:06:11;26.50;;;13.93;;
71104;SDS011;58760;48.716;8.962;2024-03-08T08:08:44;24.10;;;13.73;;
71104;SDS011;58760;48.716;8.962;2024-03-08T08:11:10;26.25;;;14.57;;
71104;SDS011;58760;48.716;8.962;2024-03-08T08:13:40;28.50;;;13.70;;
71104;SDS011;58760;48.716;8.962;2024-03-08T08:16:08;24.83;;;13.65;;
71104;SDS011;58760;48.716;8.962;2024-03-08T08:18:34;23.65;;;12.60;;
71104;SDS011;58760;48.716;8.962;2024-03-08T08:21:00;26.60;;;13.68;;
71104;SDS011;58760;48.716;8.962;2024-03-08T08:23:36;26.15;;;13.48;;
71104;SDS011;58760;48.716;8.962;2024-03-08T08:26:01;26.58;;;13.45;;
71104;SDS011;58760;48.716;8.962;2024-03-08T08:28:29;24.08;;;12.60;;
71104;SDS011;58760;48.716;8.962;2024-03-08T08:30:56;25.52;;;13.80;;
71104;SDS011;58760;48.716;8.962;2024-03-08T08:33:22;22.92;;;12.73;;
71104;SDS011;58760;48.716;8.962;2024-03-08T08:35:50;25.67;;;13.13;;
71104;SDS011;58760;48.716;8.962;2024-03-08T08:38:19;22.30;;;12.27;;
71104;SDS011;58760;48.716;8.962;2024-03-08T08:40:45;25.25;;;13.50;;
71104;SDS011;58760;48.716;8.962;2024-03-08T08:43:14;23.88;;;12.90;;
71104;SDS011;58760;48.716;8.962;2024-03-08T08:45:40;26.02;;;12.85;;
71104;SDS011;58760;48.716;8.962;2024-03-08T08:48:06;24.52;;;11.98;;
71104;SDS011;58760;48.716;8.962;2024-03-08T08:50:31;24.83;;;13.25;;
71104;SDS011;58760;48.716;8.962;2024-03-08T08:52:59;20.27;;;11.18;;
71104;SDS011;58760;48.716;8.962;2024-03-08T08:55:25;21.02;;;11.93;;
71104;SDS011;58760;48.716;8.962;2024-03-08T08:57:51;23.13;;;13.02;;
71104;SDS011;58760;48.716;8.962;2024-03-08T09:00:17;24.00;;;12.98;;
71104;SDS011;58760;48.716;8.962;2024-03-08T09:02:47;22.35;;;11.70;;
71104;SDS011;58760;48.716;8.962;2024-03-08T09:05:13;25.00;;;13.18;;
71104;SDS011;58760;48.716;8.962;2024-03-08T09:07:45;23.65;;;12.55;;
71104;SDS011;58760;48.716;8.962;2024-03-08T09:10:11;22.92;;;13.38;;
71104;SDS011;58760;48.716;8.962;2024-03-08T09:12:45;21.40;;;12.43;;
71104;SDS011;58760;48.716;8.962;2024-03-08T09:15:11;25.95;;;13.70;;
71104;SDS011;58760;48.716;8.962;2024-03-08T09:17:37;21.90;;;12.48;;
71104;SDS011;58760;48.716;8.962;2024-03-08T09:20:06;21.08;;;12.00;;
71104;SDS011;58760;48.716;8.962;2024-03-08T09:22:34;22.92;;;11.98;;
71104;SDS011;58760;48.716;8.962;2024-03-08T09:25:00;22.30;;;12.30;;
71104;SDS011;58760;48.716;8.962;2024-03-08T09:27:26;22.70;;;12.40;;
71104;SDS011;58760;48.716;8.962;2024-03-08T09:29:52;20.83;;;11.43;;
71104;SDS011;58760;48.716;8.962;2024-03-08T09:32:18;24.63;;;11.73;;
71104;SDS011;58760;48.716;8.962;2024-03-08T09:34:44;24.00;;;12.55;;
71104;SDS011;58760;48.716;8.962;2024-03-08T09:37:09;23.05;;;12.35;;
71104;SDS011;58760;48.716;8.962;2024-03-08T09:39:35;22.38;;;12.18;;
71104;SDS011;58760;48.716;8.962;2024-03-08T09:42:01;22.42;;;13.07;;
71104;SDS011;58760;48.716;8.962;2024-03-08T09:44:27;22.92;;;11.68;;
71104;SDS011;58760;48.716;8.962;2024-03-08T09:47:00;22.60;;;12.50;;
71104;SDS011;58760;48.716;8.962;2024-03-08T09:49:27;23.10;;;12.95;;
71104;SDS011;58760;48.716;8.962;2024-03-08T09:51:54;20.70;;;11.55;;
71104;SDS011;58760;48.716;8.962;2024-03-08T09:54:21;22.23;;;11.98;;
71104;SDS011;58760;48.716;8.962;2024-03-08T09:56:47;21.58;;;11.23;;
71104;SDS011;58760;48.716;8.962;2024-03-08T09:59:15;20.95;;;12.23;;
71104;SDS011;58760;48.716;8.962;2024-03-08T10:01:46;21.08;;;11.48;;
71104;SDS011;58760;48.716;8.962;2024-03-08T10:04:12;23.08;;;13.13;;
71104;SDS011;58760;48.716;8.962;2024-03-08T10:06:39;21.67;;;12.68;;
71104;SDS011;58760;48.716;8.962;2024-03-08T10:09:05;22.50;;;11.65;;
71104;SDS011;58760;48.716;8.962;2024-03-08T10:11:32;22.27;;;11.63;;
71104;SDS011;58760;48.716;8.962;2024-03-08T10:13:59;20.55;;;11.90;;
71104;SDS011;58760;48.716;8.962;2024-03-08T10:16:26;22.58;;;12.48;;
71104;SDS011;58760;48.716;8.962;2024-03-08T10:18:52;21.92;;;12.77;;
71104;SDS011;58760;48.716;8.962;2024-03-08T10:21:18;20.65;;;11.57;;
71104;SDS011;58760;48.716;8.962;2024-03-08T10:23:44;21.58;;;11.38;;
71104;SDS011;58760;48.716;8.962;2024-03-08T10:28:42;19.60;;;11.43;;
71104;SDS011;58760;48.716;8.962;2024-03-08T10:31:09;22.20;;;12.10;;
71104;SDS011;58760;48.716;8.962;2024-03-08T10:33:35;23.52;;;12.88;;
71104;SDS011;58760;48.716;8.962;2024-03-08T10:36:03;21.02;;;11.70;;
71104;SDS011;58760;48.716;8.962;2024-03-08T10:38:31;19.75;;;11.30;;
71104;SDS011;58760;48.716;8.962;2024-03-08T10:41:00;20.15;;;11.57;;
71104;SDS011;58760;48.716;8.962;2024-03-08T10:43:28;21.52;;;11.57;;
71104;SDS011;58760;48.716;8.962;2024-03-08T10:46:00;22.42;;;11.68;;
71104;SDS011;58760;48.716;8.962;2024-03-08T10:48:44;21.40;;;12.00;;
71104;SDS011;58760;48.716;8.962;2024-03-08T10:51:14;18.23;;;11.35;;
71104;SDS011;58760;48.716;8.962;2024-03-08T10:53:40;22.95;;;11.48;;
71104;SDS011;58760;48.716;8.962;2024-03-08T10:56:07;19.60;;;10.85;;
71104;SDS011;58760;48.716;8.962;2024-03-08T10:58:34;19.08;;;10.45;;
71104;SDS011;58760;48.716;8.962;2024-03-08T11:01:01;17.75;;;10.77;;
71104;SDS011;58760;48.716;8.962;2024-03-08T11:06:08;23.90;;;11.05;;
71104;SDS011;58760;48.716;8.962;2024-03-08T11:08:37;18.75;;;10.90;;
71104;SDS011;58760;48.716;8.962;2024-03-08T11:11:04;18.20;;;10.10;;
71104;SDS011;58760;48.716;8.962;2024-03-08T11:16:11;19.25;;;10.75;;
71104;SDS011;58760;48.716;8.962;2024-03-08T11:21:36;18.10;;;10.30;;
71104;SDS011;58760;48.716;8.962;2024-03-08T11:24:14;17.83;;;10.55;;
71104;SDS011;58760;48.716;8.962;2024-03-08T11:26:41;18.15;;;10.27;;
71104;SDS011;58760;48.716;8.962;2024-03-08T11:32:16;18.38;;;10.27;;
71104;SDS011;58760;48.716;8.962;2024-03-08T11:34:47;19.05;;;10.52;;
71104;SDS011;58760;48.716;8.962;2024-03-08T11:37:18;17.15;;;10.25;;
71104;SDS011;58760;48.716;8.962;2024-03-08T11:39:49;16.58;;;9.65;;
71104;SDS011;58760;48.716;8.962;2024-03-08T11:42:16;17.35;;;10.23;;
71104;SDS011;58760;48.716;8.962;2024-03-08T11:44:45;19.17;;;10.38;;
71104;SDS011;58760;48.716;8.962;2024-03-08T11:47:11;17.38;;;9.82;;
71104;SDS011;58760;48.716;8.962;2024-03-08T11:49:46;17.38;;;10.35;;
71104;SDS011;58760;48.716;8.962;2024-03-08T11:52:14;16.50;;;9.80;;
71104;SDS011;58760;48.716;8.962;2024-03-08T11:54:40;18.80;;;10.50;;
71104;SDS011;58760;48.716;8.962;2024-03-08T11:57:07;18.52;;;10.98;;
71104;SDS011;58760;48.716;8.962;2024-03-08T11:59:34;17.55;;;10.32;;
71104;SDS011;58760;48.716;8.962;2024-03-08T12:02:01;19.42;;;10.23;;
71104;SDS011;58760;48.716;8.962;2024-03-08T12:04:29;16.48;;;9.48;;
71104;SDS011;58760;48.716;8.962;2024-03-08T12:06:57;15.73;;;9.20;;
71104;SDS011;58760;48.716;8.962;2024-03-08T12:09:27;14.40;;;8.57;;
71104;SDS011;58760;48.716;8.962;2024-03-08T12:11:53;17.02;;;9.57;;
71104;SDS011;58760;48.716;8.962;2024-03-08T12:14:24;15.18;;;9.18;;
71104;SDS011;58760;48.716;8.962;2024-03-08T12:16:50;15.05;;;8.98;;
71104;SDS011;58760;48.716;8.962;2024-03-08T12:19:16;14.88;;;9.35;;
71104;SDS011;58760;48.716;8.962;2024-03-08T12:21:42;13.55;;;8.93;;
71104;SDS011;58760;48.716;8.962;2024-03-08T12:24:14;15.45;;;9.30;;
71104;SDS011;58760;48.716;8.962;2024-03-08T12:26:47;14.00;;;9.27;;
71104;SDS011;58760;48.716;8.962;2024-03-08T12:31:56;13.73;;;8.38;;
71104;SDS011;58760;48.716;8.962;2024-03-08T12:34:26;15.07;;;8.90;;
71104;SDS011;58760;48.716;8.962;2024-03-08T12:36:55;12.88;;;8.60;;
71104;SDS011;58760;48.716;8.962;2024-03-08T12:42:57;13.30;;;8.40;;
71104;SDS011;58760;48.716;8.962;2024-03-08T12:45:24;13.55;;;8.55;;
71104;SDS011;58760;48.716;8.962;2024-03-08T12:47:51;14.10;;;8.25;;
71104;SDS011;58760;48.716;8.962;2024-03-08T12:50:23;13.40;;;8.52;;
71104;SDS011;58760;48.716;8.962;2024-03-08T12:52:58;13.20;;;7.70;;
71104;SDS011;58760;48.716;8.962;2024-03-08T12:55:26;13.15;;;8.68;;
71104;SDS011;58760;48.716;8.962;2024-03-08T12:57:52;12.93;;;8.40;;
71104;SDS011;58760;48.716;8.962;2024-03-08T13:00:18;12.80;;;9.10;;
71104;SDS011;58760;48.716;8.962;2024-03-08T13:02:50;13.77;;;8.65;;
71104;SDS011;58760;48.716;8.962;2024-03-08T13:05:20;12.45;;;8.48;;
71104;SDS011;58760;48.716;8.962;2024-03-08T13:07:48;15.05;;;9.13;;
71104;SDS011;58760;48.716;8.962;2024-03-08T13:10:22;14.73;;;8.68;;
71104;SDS011;58760;48.716;8.962;2024-03-08T13:12:50;13.80;;;9.15;;
71104;SDS011;58760;48.716;8.962;2024-03-08T13:15:18;13.30;;;8.93;;
71104;SDS011;58760;48.716;8.962;2024-03-08T13:17:47;13.93;;;9.25;;
71104;SDS011;58760;48.716;8.962;2024-03-08T13:20:16;14.60;;;9.55;;
71104;SDS011;58760;48.716;8.962;2024-03-08T13:22:50;14.40;;;9.82;;
71104;SDS011;58760;48.716;8.962;2024-03-08T13:25:18;13.15;;;8.75;;
71104;SDS011;58760;48.716;8.962;2024-03-08T13:27:56;15.02;;;9.32;;
71104;SDS011;58760;48.716;8.962;2024-03-08T13:30:26;14.35;;;10.10;;
71104;SDS011;58760;48.716;8.962;2024-03-08T13:32:52;17.15;;;10.55;;
71104;SDS011;58760;48.716;8.962;2024-03-08T13:35:20;15.95;;;9.73;;
71104;SDS011;58760;48.716;8.962;2024-03-08T13:37:58;13.77;;;9.27;;
71104;SDS011;58760;48.716;8.962;2024-03-08T13:40:34;13.30;;;9.57;;
71104;SDS011;58760;48.716;8.962;2024-03-08T13:43:00;14.88;;;9.45;;
71104;SDS011;58760;48.716;8.962;2024-03-08T13:47:54;14.57;;;9.30;;
71104;SDS011;58760;48.716;8.962;2024-03-08T13:50:20;13.80;;;9.77;;
71104;SDS011;58760;48.716;8.962;2024-03-08T13:52:54;15.20;;;9.98;;
71104;SDS011;58760;48.716;8.962;2024-03-08T13:55:27;14.50;;;10.27;;
71104;SDS011;58760;48.716;8.962;2024-03-08T13:58:09;14.10;;;9.45;;
71104;SDS011;58760;48.716;8.962;2024-03-08T14:00:46;12.45;;;8.60;;
71104;SDS011;58760;48.716;8.962;2024-03-08T14:03:19;14.52;;;10.45;;
71104;SDS011;58760;48.716;8.962;2024-03-08T14:05:49;14.90;;;9.90;;
71104;SDS011;58760;48.716;8.962;2024-03-08T14:08:15;15.82;;;10.63;;
71104;SDS011;58760;48.716;8.962;2024-03-08T14:10:42;16.42;;;10.73;;
71104;SDS011;58760;48.716;8.962;2024-03-08T14:13:15;14.57;;;9.73;;
71104;SDS011;58760;48.716;8.962;2024-03-08T14:15:44;15.57;;;10.63;;
71104;SDS011;58760;48.716;8.962;2024-03-08T14:18:11;15.05;;;11.05;;
71104;SDS011;58760;48.716;8.962;2024-03-08T14:20:38;17.65;;;11.68;;
71104;SDS011;58760;48.716;8.962;2024-03-08T14:25:33;14.27;;;10.18;;
71104;SDS011;58760;48.716;8.962;2024-03-08T14:28:04;16.63;;;10.15;;
71104;SDS011;58760;48.716;8.962;2024-03-08T14:30:32;13.15;;;9.57;;
71104;SDS011;58760;48.716;8.962;2024-03-08T14:33:03;14.27;;;9.23;;
71104;SDS011;58760;48.716;8.962;2024-03-08T14:35:36;17.77;;;10.75;;
71104;SDS011;58760;48.716;8.962;2024-03-08T14:38:02;16.33;;;10.75;;
71104;SDS011;58760;48.716;8.962;2024-03-08T14:40:29;15.10;;;10.07;;
71104;SDS011;58760;48.716;8.962;2024-03-08T14:43:00;14.95;;;10.75;;
71104;SDS011;58760;48.716;8.962;2024-03-08T14:45:26;15.88;;;11.07;;
71104;SDS011;58760;48.716;8.962;2024-03-08T14:47:52;17.25;;;11.63;;
71104;SDS011;58760;48.716;8.962;2024-03-08T14:50:21;16.70;;;11.30;;
71104;SDS011;58760;48.716;8.962;2024-03-08T14:52:48;17.77;;;11.13;;
71104;SDS011;58760;48.716;8.962;2024-03-08T14:57:41;15.20;;;10.40;;
71104;SDS011;58760;48.716;8.962;2024-03-08T15:00:07;17.60;;;12.02;;